sensor_id;sensor_type;location;lat;lon;timestamp;pressure;altitude;pressure_sealevel;temperature;humidity
50684;BME280;36654;45.042;38.994;2022-11-20T00:01:41;101810.97;;;12.72;82.00
50684;BME280;36654;45.042;38.994;2022-11-20T00:04:08;101802.81;;;12.63;81.84
50684;BME280;36654;45.042;38.994;2022-11-20T00:06:34;101799.34;;;12.67;81.81
50684;BME280;36654;45.042;38.994;2022-11-20T00:09:00;101814.38;;;12.65;82.05
50684;BME280;36654;45.042;38.994;2022-11-20T00:11:27;101798.31;;;12.59;82.19
50684;BME280;36654;45.042;38.994;2022-11-20T00:13:56;101803.72;;;12.65;82.23
50684;BME280;36654;45.042;38.994;2022-11-20T00:16:26;101801.94;;;12.64;81.84
50684;BME280;36654;45.042;38.994;2022-11-20T00:18:52;101775.94;;;12.49;81.99
50684;BME280;36654;45.042;38.994;2022-11-20T00:21:26;101799.09;;;12.55;81.88
50684;BME280;36654;45.042;38.994;2022-11-20T00:23:53;101792.78;;;12.50;81.94
50684;BME280;36654;45.042;38.994;2022-11-20T00:26:21;101820.38;;;12.55;81.78
50684;BME280;36654;45.042;38.994;2022-11-20T00:28:55;101805.28;;;12.54;81.61
50684;BME280;36654;45.042;38.994;2022-11-20T00:31:21;101753.19;;;12.20;81.61
50684;BME280;36654;45.042;38.994;2022-11-20T00:33:47;101811.34;;;12.47;81.81
50684;BME280;36654;45.042;38.994;2022-11-20T00:36:19;101810.47;;;12.46;81.68
50684;BME280;36654;45.042;38.994;2022-11-20T00:38:46;101802.31;;;12.39;81.61
50684;BME280;36654;45.042;38.994;2022-11-20T00:41:15;101807.66;;;12.39;81.51
50684;BME280;36654;45.042;38.994;2022-11-20T00:43:41;101785.25;;;12.27;81.62
50684;BME280;36654;45.042;38.994;2022-11-20T00:46:18;101791.59;;;12.34;81.37
50684;BME280;36654;45.042;38.994;2022-11-20T00:48:45;101798.72;;;12.37;81.53
50684;BME280;36654;45.042;38.994;2022-11-20T00:51:12;101710.13;;;11.95;81.37
50684;BME280;36654;45.042;38.994;2022-11-20T00:53:38;101791.50;;;12.29;81.20
50684;BME280;36654;45.042;38.994;2022-11-20T00:56:06;101755.41;;;12.00;80.76
50684;BME280;36654;45.042;38.994;2022-11-20T00:58:34;101783.97;;;12.10;80.36
50684;BME280;36654;45.042;38.994;2022-11-20T01:01:02;101799.25;;;12.19;80.38
50684;BME280;36654;45.042;38.994;2022-11-20T01:03:33;101799.19;;;12.17;80.56
50684;BME280;36654;45.042;38.994;2022-11-20T01:06:03;101751.50;;;11.84;80.34
50684;BME280;36654;45.042;38.994;2022-11-20T01:08:31;101808.00;;;12.15;80.30
50684;BME280;36654;45.042;38.994;2022-11-20T01:11:11;101772.19;;;11.96;80.45
50684;BME280;36654;45.042;38.994;2022-11-20T01:13:38;101765.06;;;11.95;80.41
50684;BME280;36654;45.042;38.994;2022-11-20T01:18:34;101787.31;;;12.00;80.64
50684;BME280;36654;45.042;38.994;2022-11-20T01:21:07;101799.81;;;12.04;80.41
50684;BME280;36654;45.042;38.994;2022-11-20T01:23:35;101791.78;;;12.01;80.63
50684;BME280;36654;45.042;38.994;2022-11-20T01:26:07;101811.13;;;11.95;80.61
50684;BME280;36654;45.042;38.994;2022-11-20T01:28:34;101780.00;;;11.90;80.73
50684;BME280;36654;45.042;38.994;2022-11-20T01:31:00;101766.28;;;11.73;80.76
50684;BME280;36654;45.042;38.994;2022-11-20T01:33:25;101795.78;;;11.85;80.83
50684;BME280;36654;45.042;38.994;2022-11-20T01:35:51;101798.53;;;11.88;80.88
50684;BME280;36654;45.042;38.994;2022-11-20T01:38:18;101803.97;;;11.91;80.86
50684;BME280;36654;45.042;38.994;2022-11-20T01:40:45;101743.81;;;11.57;80.76
50684;BME280;36654;45.042;38.994;2022-11-20T01:43:17;101803.84;;;11.86;80.74
50684;BME280;36654;45.042;38.994;2022-11-20T01:45:56;101789.38;;;11.75;80.85
50684;BME280;36654;45.042;38.994;2022-11-20T01:48:26;101790.09;;;11.68;81.13
50684;BME280;36654;45.042;38.994;2022-11-20T01:50:53;101779.28;;;11.60;81.36
50684;BME280;36654;45.042;38.994;2022-11-20T01:53:24;101790.91;;;11.64;81.49
50684;BME280;36654;45.042;38.994;2022-11-20T01:55:55;101774.72;;;11.53;81.54
50684;BME280;36654;45.042;38.994;2022-11-20T01:58:27;101758.69;;;11.50;81.68
50684;BME280;36654;45.042;38.994;2022-11-20T02:00:54;101788.31;;;11.67;81.56
50684;BME280;36654;45.042;38.994;2022-11-20T02:03:20;101776.69;;;11.62;81.63
50684;BME280;36654;45.042;38.994;2022-11-20T02:08:24;101775.91;;;11.68;81.59
50684;BME280;36654;45.042;38.994;2022-11-20T02:10:50;101780.56;;;11.76;81.48
50684;BME280;36654;45.042;38.994;2022-11-20T02:13:16;101710.66;;;11.39;81.42
50684;BME280;36654;45.042;38.994;2022-11-20T02:16:00;101738.38;;;11.51;81.28
50684;BME280;36654;45.042;38.994;2022-11-20T02:18:26;101787.63;;;11.76;81.36
50684;BME280;36654;45.042;38.994;2022-11-20T02:21:03;101768.00;;;11.69;81.21
50684;BME280;36654;45.042;38.994;2022-11-20T02:26:20;101760.84;;;11.66;81.13
50684;BME280;36654;45.042;38.994;2022-11-20T02:28:46;101747.47;;;11.62;81.43
50684;BME280;36654;45.042;38.994;2022-11-20T02:31:12;101727.81;;;11.54;81.20
50684;BME280;36654;45.042;38.994;2022-11-20T02:33:38;101730.47;;;11.55;81.29
50684;BME280;36654;45.042;38.994;2022-11-20T02:36:04;101770.78;;;11.75;81.08
50684;BME280;36654;45.042;38.994;2022-11-20T02:38:30;101787.72;;;11.80;80.95
50684;BME280;36654;45.042;38.994;2022-11-20T02:40:55;101756.19;;;11.56;81.06
50684;BME280;36654;45.042;38.994;2022-11-20T02:43:22;101799.22;;;11.79;81.13
50684;BME280;36654;45.042;38.994;2022-11-20T02:45:48;101769.66;;;11.64;80.82
50684;BME280;36654;45.042;38.994;2022-11-20T02:48:13;101779.56;;;11.71;81.02
50684;BME280;36654;45.042;38.994;2022-11-20T02:50:40;101781.06;;;11.60;81.12
50684;BME280;36654;45.042;38.994;2022-11-20T02:53:06;101776.63;;;11.59;81.27
50684;BME280;36654;45.042;38.994;2022-11-20T02:55:32;101788.25;;;11.64;81.31
50684;BME280;36654;45.042;38.994;2022-11-20T02:57:57;101761.31;;;11.49;81.20
50684;BME280;36654;45.042;38.994;2022-11-20T03:00:23;101773.66;;;11.47;81.40
50684;BME280;36654;45.042;38.994;2022-11-20T03:02:49;101781.56;;;11.45;81.57
50684;BME280;36654;45.042;38.994;2022-11-20T03:05:14;101778.91;;;11.43;81.87
50684;BME280;36654;45.042;38.994;2022-11-20T03:07:40;101783.97;;;11.34;81.83
50684;BME280;36654;45.042;38.994;2022-11-20T03:10:06;101777.81;;;11.35;81.75
50684;BME280;36654;45.042;38.994;2022-11-20T03:12:31;101791.06;;;11.35;81.96
50684;BME280;36654;45.042;38.994;2022-11-20T03:14:57;101801.69;;;11.35;82.13
50684;BME280;36654;45.042;38.994;2022-11-20T03:17:23;101783.81;;;11.28;82.03
50684;BME280;36654;45.042;38.994;2022-11-20T03:19:48;101771.16;;;11.18;82.08
50684;BME280;36654;45.042;38.994;2022-11-20T03:22:14;101803.50;;;11.36;82.05
50684;BME280;36654;45.042;38.994;2022-11-20T03:24:40;101809.78;;;11.40;81.97
50684;BME280;36654;45.042;38.994;2022-11-20T03:27:05;101815.09;;;11.40;82.06
50684;BME280;36654;45.042;38.994;2022-11-20T03:29:31;101797.25;;;11.34;82.00
50684;BME280;36654;45.042;38.994;2022-11-20T03:31:57;101802.69;;;11.40;82.11
50684;BME280;36654;45.042;38.994;2022-11-20T03:34:23;101806.94;;;11.32;82.08
50684;BME280;36654;45.042;38.994;2022-11-20T03:36:48;101778.50;;;11.28;82.03
50684;BME280;36654;45.042;38.994;2022-11-20T03:39:14;101801.56;;;11.29;82.07
50684;BME280;36654;45.042;38.994;2022-11-20T03:41:41;101798.16;;;11.35;81.74
50684;BME280;36654;45.042;38.994;2022-11-20T03:44:09;101811.47;;;11.36;82.16
50684;BME280;36654;45.042;38.994;2022-11-20T03:46:35;101824.75;;;11.36;81.90
50684;BME280;36654;45.042;38.994;2022-11-20T03:49:01;101795.31;;;11.27;81.98
50684;BME280;36654;45.042;38.994;2022-11-20T03:51:34;101806.94;;;11.32;81.97
50684;BME280;36654;45.042;38.994;2022-11-20T03:54:03;101823.03;;;11.38;82.15
50684;BME280;36654;45.042;38.994;2022-11-20T03:56:30;101810.59;;;11.37;82.09
50684;BME280;36654;45.042;38.994;2022-11-20T03:58:56;101808.66;;;11.30;81.97
50684;BME280;36654;45.042;38.994;2022-11-20T04:01:27;101797.97;;;11.27;82.07
50684;BME280;36654;45.042;38.994;2022-11-20T04:03:55;101791.88;;;11.31;81.97
50684;BME280;36654;45.042;38.994;2022-11-20T04:06:26;101796.56;;;11.41;81.91
50684;BME280;36654;45.042;38.994;2022-11-20T04:08:54;101739.25;;;11.13;81.90
50684;BME280;36654;45.042;38.994;2022-11-20T04:11:25;101767.88;;;11.28;81.81
50684;BME280;36654;45.042;38.994;2022-11-20T04:13:59;101737.31;;;11.08;81.83
50684;BME280;36654;45.042;38.994;2022-11-20T04:16:28;101783.91;;;11.31;81.85
50684;BME280;36654;45.042;38.994;2022-11-20T04:18:56;101742.53;;;11.05;81.98
50684;BME280;36654;45.042;38.994;2022-11-20T04:21:23;101788.22;;;11.28;81.87
50684;BME280;36654;45.042;38.994;2022-11-20T04:23:50;101735.28;;;10.97;82.15
50684;BME280;36654;45.042;38.994;2022-11-20T04:26:16;101764.66;;;11.05;82.24
50684;BME280;36654;45.042;38.994;2022-11-20T04:28:42;101719.94;;;10.86;82.41
50684;BME280;36654;45.042;38.994;2022-11-20T04:31:13;101778.94;;;11.09;82.56
50684;BME280;36654;45.042;38.994;2022-11-20T04:33:40;101799.59;;;11.22;82.60
50684;BME280;36654;45.042;38.994;2022-11-20T04:36:11;101797.66;;;11.15;82.91
50684;BME280;36654;45.042;38.994;2022-11-20T04:38:37;101806.56;;;11.17;82.77
50684;BME280;36654;45.042;38.994;2022-11-20T04:41:05;101808.25;;;11.15;82.92
50684;BME280;36654;45.042;38.994;2022-11-20T04:43:31;101820.69;;;11.16;83.03
50684;BME280;36654;45.042;38.994;2022-11-20T04:45:58;101808.25;;;11.15;83.34
50684;BME280;36654;45.042;38.994;2022-11-20T04:48:25;101792.19;;;11.09;83.17
50684;BME280;36654;45.042;38.994;2022-11-20T04:50:51;101794.03;;;11.11;83.01
50684;BME280;36654;45.042;38.994;2022-11-20T04:53:18;101819.19;;;11.27;83.11
50684;BME280;36654;45.042;38.994;2022-11-20T04:55:44;101803.16;;;11.22;83.20
50684;BME280;36654;45.042;38.994;2022-11-20T04:58:10;101802.31;;;11.23;83.01
50684;BME280;36654;45.042;38.994;2022-11-20T05:00:35;101822.75;;;11.28;83.02
50684;BME280;36654;45.042;38.994;2022-11-20T05:03:01;101825.50;;;11.31;82.90
50684;BME280;36654;45.042;38.994;2022-11-20T05:05:26;101805.59;;;11.15;82.92
50684;BME280;36654;45.042;38.994;2022-11-20T05:07:52;101822.63;;;11.23;82.93
50684;BME280;36654;45.042;38.994;2022-11-20T05:10:18;101721.25;;;10.68;82.87
50684;BME280;36654;45.042;38.994;2022-11-20T05:12:43;101806.56;;;11.17;82.91
50684;BME280;36654;45.042;38.994;2022-11-20T05:15:09;101809.19;;;11.17;82.84
50684;BME280;36654;45.042;38.994;2022-11-20T05:17:35;101800.56;;;11.26;82.90
50684;BME280;36654;45.042;38.994;2022-11-20T05:20:00;101812.25;;;11.32;82.77
50684;BME280;36654;45.042;38.994;2022-11-20T05:22:26;101797.00;;;11.25;82.63
50684;BME280;36654;45.042;38.994;2022-11-20T05:24:52;101788.84;;;11.16;82.45
50684;BME280;36654;45.042;38.994;2022-11-20T05:27:17;101792.50;;;11.21;82.51
50684;BME280;36654;45.042;38.994;2022-11-20T05:29:43;101787.91;;;11.14;82.41
50684;BME280;36654;45.042;38.994;2022-11-20T05:32:09;101796.00;;;11.20;82.70
50684;BME280;36654;45.042;38.994;2022-11-20T05:34:35;101796.94;;;11.22;82.75
50684;BME280;36654;45.042;38.994;2022-11-20T05:37:02;101800.38;;;11.18;82.63
50684;BME280;36654;45.042;38.994;2022-11-20T05:39:28;101795.13;;;11.19;82.92
50684;BME280;36654;45.042;38.994;2022-11-20T05:41:54;101731.63;;;10.92;83.07
50684;BME280;36654;45.042;38.994;2022-11-20T05:44:38;101792.72;;;11.30;83.16
50684;BME280;36654;45.042;38.994;2022-11-20T05:47:03;101807.19;;;11.41;83.11
50684;BME280;36654;45.042;38.994;2022-11-20T05:49:29;101805.59;;;11.50;83.12
50684;BME280;36654;45.042;38.994;2022-11-20T05:51:55;101804.78;;;11.52;82.98
50684;BME280;36654;45.042;38.994;2022-11-20T05:54:20;101818.34;;;11.64;82.71
50684;BME280;36654;45.042;38.994;2022-11-20T05:56:46;101798.94;;;11.67;82.56
50684;BME280;36654;45.042;38.994;2022-11-20T05:59:11;101794.38;;;11.61;82.40
50684;BME280;36654;45.042;38.994;2022-11-20T06:01:37;101771.03;;;11.48;82.43
50684;BME280;36654;45.042;38.994;2022-11-20T06:04:03;101772.97;;;11.55;82.32
50684;BME280;36654;45.042;38.994;2022-11-20T06:06:28;101801.81;;;11.78;82.36
50684;BME280;36654;45.042;38.994;2022-11-20T06:08:54;101806.31;;;11.80;82.23
50684;BME280;36654;45.042;38.994;2022-11-20T06:11:21;101774.16;;;11.68;82.38
50684;BME280;36654;45.042;38.994;2022-11-20T06:13:47;101801.09;;;11.83;82.23
50684;BME280;36654;45.042;38.994;2022-11-20T06:16:15;101803.09;;;11.92;82.12
50684;BME280;36654;45.042;38.994;2022-11-20T06:18:41;101787.13;;;11.92;82.29
50684;BME280;36654;45.042;38.994;2022-11-20T06:21:12;101808.84;;;12.12;82.17
50684;BME280;36654;45.042;38.994;2022-11-20T06:23:38;101793.78;;;12.11;81.93
50684;BME280;36654;45.042;38.994;2022-11-20T06:26:08;101764.38;;;12.03;81.89
50684;BME280;36654;45.042;38.994;2022-11-20T06:28:35;101791.50;;;12.29;81.72
50684;BME280;36654;45.042;38.994;2022-11-20T06:31:01;101733.63;;;12.16;81.33
50684;BME280;36654;45.042;38.994;2022-11-20T06:33:27;101799.19;;;12.58;81.30
50684;BME280;36654;45.042;38.994;2022-11-20T06:35:56;101781.53;;;12.63;81.11
50684;BME280;36654;45.042;38.994;2022-11-20T06:38:23;101785.28;;;12.74;80.73
50684;BME280;36654;45.042;38.994;2022-11-20T06:40:48;101796.97;;;12.83;80.58
50684;BME280;36654;45.042;38.994;2022-11-20T06:43:14;101741.41;;;12.52;80.31
50684;BME280;36654;45.042;38.994;2022-11-20T06:45:40;101738.66;;;12.48;80.59
50684;BME280;36654;45.042;38.994;2022-11-20T06:48:06;101783.56;;;12.77;80.74
50684;BME280;36654;45.042;38.994;2022-11-20T06:50:31;101788.00;;;12.76;80.57
50684;BME280;36654;45.042;38.994;2022-11-20T06:53:00;101759.47;;;12.69;80.90
50684;BME280;36654;45.042;38.994;2022-11-20T06:55:26;101744.22;;;12.60;80.80
50684;BME280;36654;45.042;38.994;2022-11-20T06:57:52;101793.38;;;12.79;80.83
50684;BME280;36654;45.042;38.994;2022-11-20T07:00:17;101790.75;;;12.82;80.55
50684;BME280;36654;45.042;38.994;2022-11-20T07:02:43;101781.69;;;12.72;80.18
50684;BME280;36654;45.042;38.994;2022-11-20T07:05:09;101777.22;;;12.70;80.08
50684;BME280;36654;45.042;38.994;2022-11-20T07:07:34;101755.03;;;12.69;80.09
50684;BME280;36654;45.042;38.994;2022-11-20T07:10:00;101743.47;;;12.67;80.04
50684;BME280;36654;45.042;38.994;2022-11-20T07:12:26;101765.91;;;12.82;79.93
50684;BME280;36654;45.042;38.994;2022-11-20T07:14:51;101772.16;;;12.84;79.89
50684;BME280;36654;45.042;38.994;2022-11-20T07:17:17;101737.16;;;12.62;80.10
50684;BME280;36654;45.042;38.994;2022-11-20T07:19:42;101721.16;;;12.59;80.06
50684;BME280;36654;45.042;38.994;2022-11-20T07:22:08;101790.91;;;12.90;80.17
50684;BME280;36654;45.042;38.994;2022-11-20T07:24:34;101772.34;;;12.94;80.07
50684;BME280;36654;45.042;38.994;2022-11-20T07:27:00;101771.41;;;12.91;79.92
50684;BME280;36654;45.042;38.994;2022-11-20T07:29:26;101734.72;;;12.73;79.97
50684;BME280;36654;45.042;38.994;2022-11-20T07:31:51;101776.84;;;12.97;79.86
50684;BME280;36654;45.042;38.994;2022-11-20T07:34:17;101776.03;;;13.01;79.92
50684;BME280;36654;45.042;38.994;2022-11-20T07:36:42;101784.06;;;13.04;79.85
50684;BME280;36654;45.042;38.994;2022-11-20T07:39:08;101765.25;;;12.95;79.59
50684;BME280;36654;45.042;38.994;2022-11-20T07:41:34;101794.75;;;13.06;79.42
50684;BME280;36654;45.042;38.994;2022-11-20T07:43:59;101794.75;;;13.07;79.48
50684;BME280;36654;45.042;38.994;2022-11-20T07:46:25;101741.97;;;12.82;79.38
50684;BME280;36654;45.042;38.994;2022-11-20T07:48:51;101786.91;;;13.13;79.39
50684;BME280;36654;45.042;38.994;2022-11-20T07:51:17;101791.47;;;13.21;79.34
50684;BME280;36654;45.042;38.994;2022-11-20T07:53:42;101787.88;;;13.19;78.98
50684;BME280;36654;45.042;38.994;2022-11-20T07:56:08;101782.50;;;13.15;78.71
50684;BME280;36654;45.042;38.994;2022-11-20T07:58:34;101744.91;;;12.97;78.83
50684;BME280;36654;45.042;38.994;2022-11-20T08:01:07;101787.91;;;13.22;79.14
50684;BME280;36654;45.042;38.994;2022-11-20T08:03:33;101753.97;;;13.08;79.28
50684;BME280;36654;45.042;38.994;2022-11-20T08:05:59;101781.00;;;13.31;79.43
50684;BME280;36654;45.042;38.994;2022-11-20T08:08:28;101767.66;;;13.28;79.46
50684;BME280;36654;45.042;38.994;2022-11-20T08:10:56;101766.91;;;13.37;79.32
50684;BME280;36654;45.042;38.994;2022-11-20T08:13:42;101762.53;;;13.42;79.51
50684;BME280;36654;45.042;38.994;2022-11-20T08:16:26;101738.47;;;13.36;79.25
50684;BME280;36654;45.042;38.994;2022-11-20T08:18:52;101747.59;;;13.52;79.20
50684;BME280;36654;45.042;38.994;2022-11-20T08:21:18;101731.53;;;13.47;79.09
50684;BME280;36654;45.042;38.994;2022-11-20T08:23:43;101738.78;;;13.57;79.14
50684;BME280;36654;45.042;38.994;2022-11-20T08:26:09;101738.91;;;13.65;78.91
50684;BME280;36654;45.042;38.994;2022-11-20T08:28:35;101729.16;;;13.67;78.65
50684;BME280;36654;45.042;38.994;2022-11-20T08:31:01;101708.75;;;13.68;78.57
50684;BME280;36654;45.042;38.994;2022-11-20T08:33:27;101700.59;;;13.57;78.58
50684;BME280;36654;45.042;38.994;2022-11-20T08:35:53;101685.47;;;13.54;78.42
50684;BME280;36654;45.042;38.994;2022-11-20T08:38:19;101686.38;;;13.55;78.77
50684;BME280;36654;45.042;38.994;2022-11-20T08:40:44;101696.16;;;13.57;79.06
50684;BME280;36654;45.042;38.994;2022-11-20T08:43:33;101629.16;;;13.27;79.04
50684;BME280;36654;45.042;38.994;2022-11-20T08:45:58;101680.19;;;13.57;79.22
50684;BME280;36654;45.042;38.994;2022-11-20T08:48:24;101626.66;;;13.39;79.38
50684;BME280;36654;45.042;38.994;2022-11-20T08:50:50;101657.22;;;13.66;79.46
50684;BME280;36654;45.042;38.994;2022-11-20T08:53:15;101645.63;;;13.62;79.40
50684;BME280;36654;45.042;38.994;2022-11-20T08:55:41;101637.75;;;13.71;79.41
50684;BME280;36654;45.042;38.994;2022-11-20T08:58:06;101645.81;;;13.76;79.41
50684;BME280;36654;45.042;38.994;2022-11-20T09:00:33;101649.47;;;13.86;79.44
50684;BME280;36654;45.042;38.994;2022-11-20T09:02:59;101647.75;;;13.91;79.38
50684;BME280;36654;45.042;38.994;2022-11-20T09:05:26;101648.75;;;13.99;79.50
50684;BME280;36654;45.042;38.994;2022-11-20T09:07:55;101639.06;;;14.06;79.25
50684;BME280;36654;45.042;38.994;2022-11-20T09:10:21;101634.63;;;14.09;79.19
50684;BME280;36654;45.042;38.994;2022-11-20T09:12:48;101640.06;;;14.20;79.20
50684;BME280;36654;45.042;38.994;2022-11-20T09:15:14;101625.00;;;14.25;79.14
50684;BME280;36654;45.042;38.994;2022-11-20T09:17:40;101613.47;;;14.26;78.91
50684;BME280;36654;45.042;38.994;2022-11-20T09:20:06;101612.66;;;14.32;78.84
50684;BME280;36654;45.042;38.994;2022-11-20T09:23:05;101622.63;;;14.53;78.67
50684;BME280;36654;45.042;38.994;2022-11-20T09:25:31;101620.94;;;14.59;78.46
50684;BME280;36654;45.042;38.994;2022-11-20T09:27:58;101613.88;;;14.63;78.33
50684;BME280;36654;45.042;38.994;2022-11-20T09:30:24;101606.75;;;14.65;78.21
50684;BME280;36654;45.042;38.994;2022-11-20T09:32:50;101603.22;;;14.69;78.24
50684;BME280;36654;45.042;38.994;2022-11-20T09:35:15;101596.13;;;14.71;78.50
50684;BME280;36654;45.042;38.994;2022-11-20T09:37:43;101615.81;;;14.85;78.27
50684;BME280;36654;45.042;38.994;2022-11-20T09:40:19;101607.84;;;14.88;78.16
50684;BME280;36654;45.042;38.994;2022-11-20T09:51:57;101548.13;;;14.77;77.96
50684;BME280;36654;45.042;38.994;2022-11-20T09:54:33;101596.41;;;15.11;77.81
50684;BME280;36654;45.042;38.994;2022-11-20T09:57:03;101581.28;;;15.12;77.83
50684;BME280;36654;45.042;38.994;2022-11-20T10:01:57;101580.44;;;15.20;77.24
50684;BME280;36654;45.042;38.994;2022-11-20T10:04:24;101562.59;;;15.13;76.75
50684;BME280;36654;45.042;38.994;2022-11-20T10:09:30;101576.00;;;15.24;76.20
50684;BME280;36654;45.042;38.994;2022-11-20T10:12:22;101571.56;;;15.27;75.83
50684;BME280;36654;45.042;38.994;2022-11-20T10:26:06;101559.09;;;15.29;75.15
50684;BME280;36654;45.042;38.994;2022-11-20T10:31:25;101576.09;;;15.38;74.85
50684;BME280;36654;45.042;38.994;2022-11-20T10:33:54;101550.25;;;15.37;75.21
50684;BME280;36654;45.042;38.994;2022-11-20T10:36:23;101552.94;;;15.38;75.08
50684;BME280;36654;45.042;38.994;2022-11-20T10:38:58;101500.28;;;15.08;75.07
50684;BME280;36654;45.042;38.994;2022-11-20T10:41:37;101546.69;;;15.38;75.40
50684;BME280;36654;45.042;38.994;2022-11-20T10:46:43;101539.59;;;15.49;75.48
50684;BME280;36654;45.042;38.994;2022-11-20T10:49:17;101528.03;;;15.51;75.42
50684;BME280;36654;45.042;38.994;2022-11-20T10:52:13;101513.78;;;15.51;75.16
50684;BME280;36654;45.042;38.994;2022-11-20T11:00:10;101521.91;;;15.71;74.74
50684;BME280;36654;45.042;38.994;2022-11-20T11:02:52;101513.03;;;15.83;74.88
50684;BME280;36654;45.042;38.994;2022-11-20T11:07:55;101493.41;;;15.81;74.42
50684;BME280;36654;45.042;38.994;2022-11-20T11:13:07;101502.34;;;16.01;74.40
50684;BME280;36654;45.042;38.994;2022-11-20T11:15:40;101452.41;;;15.82;74.08
50684;BME280;36654;45.042;38.994;2022-11-20T11:18:10;101492.53;;;16.03;73.92
50684;BME280;36654;45.042;38.994;2022-11-20T11:20:37;101445.28;;;15.78;74.12
50684;BME280;36654;45.042;38.994;2022-11-20T11:23:03;101485.38;;;16.02;74.14
50684;BME280;36654;45.042;38.994;2022-11-20T11:25:32;101486.28;;;16.04;74.26
50684;BME280;36654;45.042;38.994;2022-11-20T11:28:19;101480.03;;;15.99;74.34
50684;BME280;36654;45.042;38.994;2022-11-20T11:30:45;101491.63;;;16.07;74.62
50684;BME280;36654;45.042;38.994;2022-11-20T11:33:24;101471.16;;;16.08;74.64
50684;BME280;36654;45.042;38.994;2022-11-20T11:35:55;101432.81;;;15.83;74.49
50684;BME280;36654;45.042;38.994;2022-11-20T11:40:54;101439.06;;;16.03;74.65
50684;BME280;36654;45.042;38.994;2022-11-20T11:43:24;101450.63;;;16.08;74.79
50684;BME280;36654;45.042;38.994;2022-11-20T11:46:33;101455.97;;;16.11;74.75
50684;BME280;36654;45.042;38.994;2022-11-20T11:54:24;101435.47;;;16.07;75.06
50684;BME280;36654;45.042;38.994;2022-11-20T11:56:51;101455.09;;;16.23;74.95
50684;BME280;36654;45.042;38.994;2022-11-20T12:02:20;101454.19;;;16.24;74.80
50684;BME280;36654;45.042;38.994;2022-11-20T12:04:57;101459.53;;;16.29;75.08
50684;BME280;36654;45.042;38.994;2022-11-20T12:10:23;101434.56;;;16.24;75.08
50684;BME280;36654;45.042;38.994;2022-11-20T12:13:01;101440.81;;;16.32;75.16
50684;BME280;36654;45.042;38.994;2022-11-20T12:15:33;101451.50;;;16.33;75.03
50684;BME280;36654;45.042;38.994;2022-11-20T12:18:00;101436.34;;;16.31;75.28
50684;BME280;36654;45.042;38.994;2022-11-20T12:20:35;101429.22;;;16.27;74.99
50684;BME280;36654;45.042;38.994;2022-11-20T12:23:13;101424.75;;;16.36;75.09
50684;BME280;36654;45.042;38.994;2022-11-20T12:25:47;101407.81;;;16.30;75.13
50684;BME280;36654;45.042;38.994;2022-11-20T12:33:45;101414.03;;;16.36;75.32
50684;BME280;36654;45.042;38.994;2022-11-20T12:36:18;101414.94;;;16.37;75.13
50684;BME280;36654;45.042;38.994;2022-11-20T12:39:16;101404.22;;;16.37;75.04
50684;BME280;36654;45.042;38.994;2022-11-20T12:41:53;101413.16;;;16.37;75.27
50684;BME280;36654;45.042;38.994;2022-11-20T12:50:59;101367.72;;;16.14;75.40
50684;BME280;36654;45.042;38.994;2022-11-20T12:59:09;101422.06;;;16.46;75.37
50684;BME280;36654;45.042;38.994;2022-11-20T13:07:35;101415.81;;;16.47;75.23
50684;BME280;36654;45.042;38.994;2022-11-20T13:10:02;101408.69;;;16.46;75.35
50684;BME280;36654;45.042;38.994;2022-11-20T13:12:49;101416.72;;;16.50;75.46
50684;BME280;36654;45.042;38.994;2022-11-20T13:18:07;101411.31;;;16.52;75.19
50684;BME280;36654;45.042;38.994;2022-11-20T13:20:34;101419.34;;;16.56;74.91
50684;BME280;36654;45.042;38.994;2022-11-20T13:23:01;101412.22;;;16.54;74.99
50684;BME280;36654;45.042;38.994;2022-11-20T13:25:34;101410.44;;;16.56;74.85
50684;BME280;36654;45.042;38.994;2022-11-20T13:30:36;101411.31;;;16.59;72.87
50684;BME280;36654;45.042;38.994;2022-11-20T13:33:25;101413.97;;;16.64;71.54
50684;BME280;36654;45.042;38.994;2022-11-20T13:38:26;101410.38;;;16.79;68.62
50684;BME280;36654;45.042;38.994;2022-11-20T13:40:54;101405.91;;;16.84;68.15
50684;BME280;36654;45.042;38.994;2022-11-20T13:43:38;101384.50;;;16.72;67.10
50684;BME280;36654;45.042;38.994;2022-11-20T13:46:07;101388.97;;;16.79;66.36
50684;BME280;36654;45.042;38.994;2022-11-20T13:48:55;101390.72;;;16.86;64.83
50684;BME280;36654;45.042;38.994;2022-11-20T13:51:46;101418.31;;;17.07;64.15
50684;BME280;36654;45.042;38.994;2022-11-20T13:57:14;101410.19;;;17.22;61.72
50684;BME280;36654;45.042;38.994;2022-11-20T14:00:20;101416.41;;;17.27;60.46
50684;BME280;36654;45.042;38.994;2022-11-20T14:03:00;101389.63;;;17.24;59.11
50684;BME280;36654;45.042;38.994;2022-11-20T14:05:35;101394.06;;;17.30;58.72
50684;BME280;36654;45.042;38.994;2022-11-20T14:08:04;101404.72;;;17.43;57.52
50684;BME280;36654;45.042;38.994;2022-11-20T15:13:46;101407.56;;;17.10;54.70
50684;BME280;36654;45.042;38.994;2022-11-20T15:16:19;101396.91;;;17.00;54.63
50684;BME280;36654;45.042;38.994;2022-11-20T15:18:45;101398.69;;;17.01;54.60
50684;BME280;36654;45.042;38.994;2022-11-20T15:21:14;101405.84;;;17.02;55.19
50684;BME280;36654;45.042;38.994;2022-11-20T15:23:40;101396.03;;;17.00;55.14
50684;BME280;36654;45.042;38.994;2022-11-20T15:26:07;101323.88;;;16.58;55.29
50684;BME280;36654;45.042;38.994;2022-11-20T15:28:36;101393.34;;;16.97;55.38
50684;BME280;36654;45.042;38.994;2022-11-20T15:31:03;101401.41;;;16.95;55.37